sensor_id;sensor_type;location;lat;lon;timestamp;P1;durP1;ratioP1;P2;durP2;ratioP2
9880;SDS011;4979;51.014;6.678;2023-04-08T00:00:34;25.60;;;10.25;;
9880;SDS011;4979;51.014;6.678;2023-04-08T00:03:01;22.70;;;10.35;;
9880;SDS011;4979;51.014;6.678;2023-04-08T00:05:26;18.92;;;9.95;;
9880;SDS011;4979;51.014;6.678;2023-04-08T00:07:52;16.13;;;10.82;;
9880;SDS011;4979;51.014;6.678;2023-04-08T00:10:18;18.45;;;10.25;;
9880;SDS011;4979;51.014;6.678;2023-04-08T00:12:46;20.00;;;11.18;;
9880;SDS011;4979;51.014;6.678;2023-04-08T00:15:12;22.83;;;11.30;;
9880;SDS011;4979;51.014;6.678;2023-04-08T00:17:38;19.23;;;10.23;;
9880;SDS011;4979;51.014;6.678;2023-04-08T00:20:05;20.83;;;10.27;;
9880;SDS011;4979;51.014;6.678;2023-04-08T00:22:31;22.40;;;11.00;;
9880;SDS011;4979;51.014;6.678;2023-04-08T00:24:57;21.27;;;11.50;;
9880;SDS011;4979;51.014;6.678;2023-04-08T00:27:22;23.85;;;12.05;;
9880;SDS011;4979;51.014;6.678;2023-04-08T00:29:49;21.08;;;11.80;;
9880;SDS011;4979;51.014;6.678;2023-04-08T00:32:15;23.77;;;12.80;;
9880;SDS011;4979;51.014;6.678;2023-04-08T00:34:41;31.30;;;13.32;;
9880;SDS011;4979;51.014;6.678;2023-04-08T00:37:07;27.50;;;13.57;;
9880;SDS011;4979;51.014;6.678;2023-04-08T00:39:33;25.55;;;13.27;;
9880;SDS011;4979;51.014;6.678;2023-04-08T00:41:59;26.88;;;13.40;;
9880;SDS011;4979;51.014;6.678;2023-04-08T00:44:26;24.88;;;13.77;;
9880;SDS011;4979;51.014;6.678;2023-04-08T00:46:51;24.38;;;13.23;;
9880;SDS011;4979;51.014;6.678;2023-04-08T00:49:17;21.85;;;12.93;;
9880;SDS011;4979;51.014;6.678;2023-04-08T00:51:43;26.10;;;14.65;;
9880;SDS011;4979;51.014;6.678;2023-04-08T00:54:09;27.77;;;15.82;;
9880;SDS011;4979;51.014;6.678;2023-04-08T00:56:35;22.25;;;15.10;;
9880;SDS011;4979;51.014;6.678;2023-04-08T00:59:01;26.58;;;14.80;;
9880;SDS011;4979;51.014;6.678;2023-04-08T01:01:40;30.77;;;15.82;;
9880;SDS011;4979;51.014;6.678;2023-04-08T01:07:07;32.45;;;14.35;;
9880;SDS011;4979;51.014;6.678;2023-04-08T01:09:47;29.70;;;14.15;;
9880;SDS011;4979;51.014;6.678;2023-04-08T01:12:21;32.72;;;14.82;;
9880;SDS011;4979;51.014;6.678;2023-04-08T01:14:58;32.92;;;14.88;;
9880;SDS011;4979;51.014;6.678;2023-04-08T01:17:27;33.78;;;14.68;;
9880;SDS011;4979;51.014;6.678;2023-04-08T01:19:54;24.10;;;14.07;;
9880;SDS011;4979;51.014;6.678;2023-04-08T01:24:49;33.67;;;15.77;;
9880;SDS011;4979;51.014;6.678;2023-04-08T01:27:21;36.55;;;16.15;;
9880;SDS011;4979;51.014;6.678;2023-04-08T01:29:47;31.95;;;16.00;;
9880;SDS011;4979;51.014;6.678;2023-04-08T01:32:13;33.85;;;15.30;;
9880;SDS011;4979;51.014;6.678;2023-04-08T01:34:40;29.27;;;15.63;;
9880;SDS011;4979;51.014;6.678;2023-04-08T01:37:07;28.45;;;15.80;;
9880;SDS011;4979;51.014;6.678;2023-04-08T01:39:33;27.48;;;14.20;;
9880;SDS011;4979;51.014;6.678;2023-04-08T01:42:00;27.23;;;13.95;;
9880;SDS011;4979;51.014;6.678;2023-04-08T01:44:26;31.67;;;16.25;;
9880;SDS011;4979;51.014;6.678;2023-04-08T01:46:53;26.80;;;15.15;;
9880;SDS011;4979;51.014;6.678;2023-04-08T01:49:20;26.10;;;14.15;;
9880;SDS011;4979;51.014;6.678;2023-04-08T01:51:47;27.27;;;14.50;;
9880;SDS011;4979;51.014;6.678;2023-04-08T01:54:13;27.88;;;14.45;;
9880;SDS011;4979;51.014;6.678;2023-04-08T01:56:40;21.85;;;13.80;;
9880;SDS011;4979;51.014;6.678;2023-04-08T01:59:09;26.52;;;15.68;;
9880;SDS011;4979;51.014;6.678;2023-04-08T02:01:38;23.83;;;13.90;;
9880;SDS011;4979;51.014;6.678;2023-04-08T02:04:05;30.90;;;14.80;;
9880;SDS011;4979;51.014;6.678;2023-04-08T02:06:31;29.98;;;14.18;;
9880;SDS011;4979;51.014;6.678;2023-04-08T02:08:58;30.33;;;15.77;;
9880;SDS011;4979;51.014;6.678;2023-04-08T02:11:24;33.55;;;14.27;;
9880;SDS011;4979;51.014;6.678;2023-04-08T02:13:50;28.30;;;15.38;;
9880;SDS011;4979;51.014;6.678;2023-04-08T02:19:01;30.80;;;14.52;;
9880;SDS011;4979;51.014;6.678;2023-04-08T02:21:36;27.77;;;15.07;;
9880;SDS011;4979;51.014;6.678;2023-04-08T02:24:08;31.48;;;15.35;;
9880;SDS011;4979;51.014;6.678;2023-04-08T02:26:37;35.67;;;17.25;;
9880;SDS011;4979;51.014;6.678;2023-04-08T02:29:04;26.08;;;15.98;;
9880;SDS011;4979;51.014;6.678;2023-04-08T02:31:31;40.25;;;16.65;;
9880;SDS011;4979;51.014;6.678;2023-04-08T02:33:58;34.15;;;16.35;;
9880;SDS011;4979;51.014;6.678;2023-04-08T02:36:24;33.60;;;15.15;;
9880;SDS011;4979;51.014;6.678;2023-04-08T02:38:50;31.27;;;15.43;;
9880;SDS011;4979;51.014;6.678;2023-04-08T02:41:16;29.05;;;16.67;;
9880;SDS011;4979;51.014;6.678;2023-04-08T02:43:42;31.23;;;14.98;;
9880;SDS011;4979;51.014;6.678;2023-04-08T02:46:07;32.80;;;16.33;;
9880;SDS011;4979;51.014;6.678;2023-04-08T02:48:35;29.92;;;15.73;;
9880;SDS011;4979;51.014;6.678;2023-04-08T02:51:01;34.08;;;17.30;;
9880;SDS011;4979;51.014;6.678;2023-04-08T02:53:26;31.58;;;15.55;;
9880;SDS011;4979;51.014;6.678;2023-04-08T02:55:52;37.40;;;16.42;;
9880;SDS011;4979;51.014;6.678;2023-04-08T02:58:17;34.83;;;15.65;;
9880;SDS011;4979;51.014;6.678;2023-04-08T03:00:43;26.52;;;15.60;;
9880;SDS011;4979;51.014;6.678;2023-04-08T03:03:09;30.23;;;16.13;;
9880;SDS011;4979;51.014;6.678;2023-04-08T03:05:35;29.10;;;17.98;;
9880;SDS011;4979;51.014;6.678;2023-04-08T03:08:00;29.60;;;16.33;;
9880;SDS011;4979;51.014;6.678;2023-04-08T03:10:26;31.45;;;16.23;;
9880;SDS011;4979;51.014;6.678;2023-04-08T03:12:52;30.73;;;16.85;;
9880;SDS011;4979;51.014;6.678;2023-04-08T03:15:18;23.52;;;15.85;;
9880;SDS011;4979;51.014;6.678;2023-04-08T03:17:44;22.85;;;15.90;;
9880;SDS011;4979;51.014;6.678;2023-04-08T03:20:10;28.55;;;16.05;;
9880;SDS011;4979;51.014;6.678;2023-04-08T03:22:36;25.02;;;16.58;;
9880;SDS011;4979;51.014;6.678;2023-04-08T03:25:01;23.88;;;14.85;;
9880;SDS011;4979;51.014;6.678;2023-04-08T03:27:28;28.08;;;15.63;;
9880;SDS011;4979;51.014;6.678;2023-04-08T03:29:53;24.20;;;15.23;;
9880;SDS011;4979;51.014;6.678;2023-04-08T03:32:21;24.88;;;14.70;;
9880;SDS011;4979;51.014;6.678;2023-04-08T03:34:47;31.38;;;16.42;;
9880;SDS011;4979;51.014;6.678;2023-04-08T03:37:15;24.88;;;15.88;;
9880;SDS011;4979;51.014;6.678;2023-04-08T03:39:41;25.25;;;15.60;;
9880;SDS011;4979;51.014;6.678;2023-04-08T03:42:07;28.23;;;16.33;;
9880;SDS011;4979;51.014;6.678;2023-04-08T03:44:32;23.55;;;15.00;;
9880;SDS011;4979;51.014;6.678;2023-04-08T03:46:58;23.90;;;15.90;;
9880;SDS011;4979;51.014;6.678;2023-04-08T03:49:23;25.73;;;15.38;;
9880;SDS011;4979;51.014;6.678;2023-04-08T03:51:49;25.50;;;16.42;;
9880;SDS011;4979;51.014;6.678;2023-04-08T03:54:15;28.63;;;15.73;;
9880;SDS011;4979;51.014;6.678;2023-04-08T03:56:40;30.85;;;18.65;;
9880;SDS011;4979;51.014;6.678;2023-04-08T03:59:06;32.40;;;16.95;;
9880;SDS011;4979;51.014;6.678;2023-04-08T04:01:32;36.03;;;17.75;;
9880;SDS011;4979;51.014;6.678;2023-04-08T04:03:57;30.80;;;17.98;;
9880;SDS011;4979;51.014;6.678;2023-04-08T04:06:23;25.88;;;16.85;;
9880;SDS011;4979;51.014;6.678;2023-04-08T04:08:51;30.70;;;17.88;;
9880;SDS011;4979;51.014;6.678;2023-04-08T04:11:18;31.98;;;18.25;;
9880;SDS011;4979;51.014;6.678;2023-04-08T04:13:45;36.80;;;18.95;;
9880;SDS011;4979;51.014;6.678;2023-04-08T04:16:11;29.35;;;17.90;;
9880;SDS011;4979;51.014;6.678;2023-04-08T04:18:36;31.85;;;18.38;;
9880;SDS011;4979;51.014;6.678;2023-04-08T04:21:05;30.80;;;18.33;;
9880;SDS011;4979;51.014;6.678;2023-04-08T04:23:31;30.48;;;18.52;;
9880;SDS011;4979;51.014;6.678;2023-04-08T04:25:57;29.00;;;18.70;;
9880;SDS011;4979;51.014;6.678;2023-04-08T04:28:23;30.55;;;19.13;;
9880;SDS011;4979;51.014;6.678;2023-04-08T04:30:49;30.77;;;18.13;;
9880;SDS011;4979;51.014;6.678;2023-04-08T04:33:15;29.30;;;17.48;;
9880;SDS011;4979;51.014;6.678;2023-04-08T04:35:40;32.22;;;19.15;;
9880;SDS011;4979;51.014;6.678;2023-04-08T04:38:06;32.78;;;18.83;;
9880;SDS011;4979;51.014;6.678;2023-04-08T04:40:36;37.25;;;19.80;;
9880;SDS011;4979;51.014;6.678;2023-04-08T04:43:02;28.63;;;17.42;;
9880;SDS011;4979;51.014;6.678;2023-04-08T04:45:28;34.08;;;19.52;;
9880;SDS011;4979;51.014;6.678;2023-04-08T04:47:54;35.35;;;19.45;;
9880;SDS011;4979;51.014;6.678;2023-04-08T04:50:20;33.40;;;18.85;;
9880;SDS011;4979;51.014;6.678;2023-04-08T04:52:45;41.28;;;22.63;;
9880;SDS011;4979;51.014;6.678;2023-04-08T04:55:11;43.03;;;22.58;;
9880;SDS011;4979;51.014;6.678;2023-04-08T04:57:37;40.72;;;22.52;;
9880;SDS011;4979;51.014;6.678;2023-04-08T05:00:02;41.70;;;22.45;;
9880;SDS011;4979;51.014;6.678;2023-04-08T05:02:29;34.35;;;21.10;;
9880;SDS011;4979;51.014;6.678;2023-04-08T05:04:54;38.50;;;21.52;;
9880;SDS011;4979;51.014;6.678;2023-04-08T05:07:20;41.13;;;21.13;;
9880;SDS011;4979;51.014;6.678;2023-04-08T05:09:46;41.95;;;22.08;;
9880;SDS011;4979;51.014;6.678;2023-04-08T05:12:12;40.25;;;22.63;;
9880;SDS011;4979;51.014;6.678;2023-04-08T05:14:38;41.25;;;22.55;;
9880;SDS011;4979;51.014;6.678;2023-04-08T05:17:05;42.13;;;22.13;;
9880;SDS011;4979;51.014;6.678;2023-04-08T05:19:31;46.28;;;24.05;;
9880;SDS011;4979;51.014;6.678;2023-04-08T05:21:57;46.15;;;22.58;;
9880;SDS011;4979;51.014;6.678;2023-04-08T05:24:23;49.53;;;23.25;;
9880;SDS011;4979;51.014;6.678;2023-04-08T05:26:48;49.67;;;23.15;;
9880;SDS011;4979;51.014;6.678;2023-04-08T05:29:17;43.35;;;21.67;;
9880;SDS011;4979;51.014;6.678;2023-04-08T05:31:43;41.65;;;23.88;;
9880;SDS011;4979;51.014;6.678;2023-04-08T05:34:09;41.97;;;22.35;;
9880;SDS011;4979;51.014;6.678;2023-04-08T05:36:35;47.88;;;23.77;;
9880;SDS011;4979;51.014;6.678;2023-04-08T05:39:01;47.83;;;24.77;;
9880;SDS011;4979;51.014;6.678;2023-04-08T05:41:27;48.83;;;24.52;;
9880;SDS011;4979;51.014;6.678;2023-04-08T05:43:53;45.10;;;24.63;;
9880;SDS011;4979;51.014;6.678;2023-04-08T05:46:18;46.17;;;25.52;;
9880;SDS011;4979;51.014;6.678;2023-04-08T05:48:44;43.47;;;24.00;;
9880;SDS011;4979;51.014;6.678;2023-04-08T05:51:13;37.83;;;22.13;;
9880;SDS011;4979;51.014;6.678;2023-04-08T05:53:40;49.72;;;23.58;;
9880;SDS011;4979;51.014;6.678;2023-04-08T05:56:05;50.03;;;24.23;;
9880;SDS011;4979;51.014;6.678;2023-04-08T05:58:31;41.47;;;23.70;;
9880;SDS011;4979;51.014;6.678;2023-04-08T06:00:57;44.53;;;24.02;;
9880;SDS011;4979;51.014;6.678;2023-04-08T06:03:22;45.13;;;23.98;;
9880;SDS011;4979;51.014;6.678;2023-04-08T06:05:48;48.85;;;23.80;;
9880;SDS011;4979;51.014;6.678;2023-04-08T06:08:14;47.22;;;24.50;;
9880;SDS011;4979;51.014;6.678;2023-04-08T06:10:47;46.22;;;25.33;;
9880;SDS011;4979;51.014;6.678;2023-04-08T06:13:14;49.63;;;25.10;;
9880;SDS011;4979;51.014;6.678;2023-04-08T06:15:40;49.35;;;26.48;;
9880;SDS011;4979;51.014;6.678;2023-04-08T06:18:05;46.60;;;26.10;;
9880;SDS011;4979;51.014;6.678;2023-04-08T06:20:31;47.78;;;26.65;;
9880;SDS011;4979;51.014;6.678;2023-04-08T06:22:57;54.70;;;27.88;;
9880;SDS011;4979;51.014;6.678;2023-04-08T06:25:22;46.83;;;26.90;;
9880;SDS011;4979;51.014;6.678;2023-04-08T06:27:48;54.78;;;28.23;;
9880;SDS011;4979;51.014;6.678;2023-04-08T06:30:14;49.97;;;27.85;;
9880;SDS011;4979;51.014;6.678;2023-04-08T06:32:40;46.13;;;28.70;;
9880;SDS011;4979;51.014;6.678;2023-04-08T06:35:06;49.17;;;27.55;;
9880;SDS011;4979;51.014;6.678;2023-04-08T06:37:32;45.47;;;26.52;;
9880;SDS011;4979;51.014;6.678;2023-04-08T06:40:02;53.97;;;29.65;;
9880;SDS011;4979;51.014;6.678;2023-04-08T06:42:31;46.45;;;26.95;;
9880;SDS011;4979;51.014;6.678;2023-04-08T06:44:56;47.05;;;28.40;;
9880;SDS011;4979;51.014;6.678;2023-04-08T06:47:22;50.05;;;28.08;;
9880;SDS011;4979;51.014;6.678;2023-04-08T06:49:48;43.50;;;25.80;;
9880;SDS011;4979;51.014;6.678;2023-04-08T06:52:14;42.80;;;25.95;;
9880;SDS011;4979;51.014;6.678;2023-04-08T06:54:40;43.20;;;26.90;;
9880;SDS011;4979;51.014;6.678;2023-04-08T06:57:06;42.47;;;25.45;;
9880;SDS011;4979;51.014;6.678;2023-04-08T06:59:32;42.70;;;27.52;;
9880;SDS011;4979;51.014;6.678;2023-04-08T07:01:57;45.63;;;28.77;;
9880;SDS011;4979;51.014;6.678;2023-04-08T07:04:24;42.17;;;26.75;;
9880;SDS011;4979;51.014;6.678;2023-04-08T07:06:49;39.95;;;24.85;;
9880;SDS011;4979;51.014;6.678;2023-04-08T07:09:15;39.67;;;25.08;;
9880;SDS011;4979;51.014;6.678;2023-04-08T07:11:41;42.95;;;27.20;;
9880;SDS011;4979;51.014;6.678;2023-04-08T07:14:07;41.78;;;26.17;;
9880;SDS011;4979;51.014;6.678;2023-04-08T07:16:32;41.33;;;27.02;;
9880;SDS011;4979;51.014;6.678;2023-04-08T07:18:58;39.60;;;24.05;;
9880;SDS011;4979;51.014;6.678;2023-04-08T07:21:24;38.90;;;25.25;;
9880;SDS011;4979;51.014;6.678;2023-04-08T07:23:50;35.88;;;24.98;;
9880;SDS011;4979;51.014;6.678;2023-04-08T07:26:15;35.88;;;24.02;;
9880;SDS011;4979;51.014;6.678;2023-04-08T07:28:41;33.35;;;23.83;;
9880;SDS011;4979;51.014;6.678;2023-04-08T07:31:08;37.58;;;24.75;;
9880;SDS011;4979;51.014;6.678;2023-04-08T07:33:34;31.45;;;22.17;;
9880;SDS011;4979;51.014;6.678;2023-04-08T07:36:00;31.23;;;23.23;;
9880;SDS011;4979;51.014;6.678;2023-04-08T07:38:26;35.88;;;23.98;;
9880;SDS011;4979;51.014;6.678;2023-04-08T07:40:52;35.47;;;23.90;;
9880;SDS011;4979;51.014;6.678;2023-04-08T07:43:17;32.80;;;22.95;;
9880;SDS011;4979;51.014;6.678;2023-04-08T07:45:43;36.63;;;24.88;;
9880;SDS011;4979;51.014;6.678;2023-04-08T07:48:08;35.03;;;22.88;;
9880;SDS011;4979;51.014;6.678;2023-04-08T07:50:35;35.67;;;24.20;;
9880;SDS011;4979;51.014;6.678;2023-04-08T07:53:01;32.65;;;23.88;;
9880;SDS011;4979;51.014;6.678;2023-04-08T07:55:27;34.17;;;23.67;;
9880;SDS011;4979;51.014;6.678;2023-04-08T07:57:57;34.53;;;24.48;;
9880;SDS011;4979;51.014;6.678;2023-04-08T08:00:23;34.58;;;24.33;;
9880;SDS011;4979;51.014;6.678;2023-04-08T08:02:49;33.38;;;23.80;;
9880;SDS011;4979;51.014;6.678;2023-04-08T08:05:15;37.70;;;26.67;;
9880;SDS011;4979;51.014;6.678;2023-04-08T08:07:40;37.88;;;25.15;;
9880;SDS011;4979;51.014;6.678;2023-04-08T08:10:06;43.42;;;26.63;;
9880;SDS011;4979;51.014;6.678;2023-04-08T08:12:32;44.05;;;28.55;;
9880;SDS011;4979;51.014;6.678;2023-04-08T08:14:58;45.92;;;29.17;;
9880;SDS011;4979;51.014;6.678;2023-04-08T08:17:24;47.63;;;31.38;;
9880;SDS011;4979;51.014;6.678;2023-04-08T08:19:53;46.47;;;30.25;;
9880;SDS011;4979;51.014;6.678;2023-04-08T08:22:19;42.28;;;27.20;;
9880;SDS011;4979;51.014;6.678;2023-04-08T08:24:45;44.08;;;28.08;;
9880;SDS011;4979;51.014;6.678;2023-04-08T08:27:11;47.70;;;31.00;;
9880;SDS011;4979;51.014;6.678;2023-04-08T08:29:37;45.95;;;30.77;;
9880;SDS011;4979;51.014;6.678;2023-04-08T08:32:03;49.53;;;29.98;;
9880;SDS011;4979;51.014;6.678;2023-04-08T08:34:29;49.15;;;33.17;;
9880;SDS011;4979;51.014;6.678;2023-04-08T08:36:54;52.85;;;32.72;;
9880;SDS011;4979;51.014;6.678;2023-04-08T08:39:21;48.38;;;32.15;;
9880;SDS011;4979;51.014;6.678;2023-04-08T08:41:46;48.95;;;32.55;;
9880;SDS011;4979;51.014;6.678;2023-04-08T08:44:12;48.60;;;33.20;;
9880;SDS011;4979;51.014;6.678;2023-04-08T08:46:44;51.53;;;34.22;;
9880;SDS011;4979;51.014;6.678;2023-04-08T08:49:12;50.45;;;33.97;;
9880;SDS011;4979;51.014;6.678;2023-04-08T08:51:38;54.38;;;34.08;;
9880;SDS011;4979;51.014;6.678;2023-04-08T08:54:04;53.10;;;32.17;;
9880;SDS011;4979;51.014;6.678;2023-04-08T08:56:31;59.00;;;33.40;;
9880;SDS011;4979;51.014;6.678;2023-04-08T08:58:58;49.63;;;32.78;;
9880;SDS011;4979;51.014;6.678;2023-04-08T09:01:34;53.72;;;33.65;;
9880;SDS011;4979;51.014;6.678;2023-04-08T09:04:17;51.78;;;33.55;;
9880;SDS011;4979;51.014;6.678;2023-04-08T09:06:45;51.85;;;34.35;;
9880;SDS011;4979;51.014;6.678;2023-04-08T09:09:11;53.00;;;35.47;;
9880;SDS011;4979;51.014;6.678;2023-04-08T09:11:37;51.65;;;33.53;;
9880;SDS011;4979;51.014;6.678;2023-04-08T09:14:04;52.85;;;34.20;;
9880;SDS011;4979;51.014;6.678;2023-04-08T09:16:41;49.13;;;33.53;;
9880;SDS011;4979;51.014;6.678;2023-04-08T09:19:08;48.95;;;32.67;;
9880;SDS011;4979;51.014;6.678;2023-04-08T09:21:35;50.60;;;34.05;;
9880;SDS011;4979;51.014;6.678;2023-04-08T09:24:02;50.50;;;34.55;;
9880;SDS011;4979;51.014;6.678;2023-04-08T09:26:28;50.85;;;33.63;;
9880;SDS011;4979;51.014;6.678;2023-04-08T09:31:29;50.67;;;33.50;;
9880;SDS011;4979;51.014;6.678;2023-04-08T09:33:56;48.95;;;33.47;;
9880;SDS011;4979;51.014;6.678;2023-04-08T09:36:23;53.15;;;34.33;;
9880;SDS011;4979;51.014;6.678;2023-04-08T09:38:51;45.03;;;32.53;;
9880;SDS011;4979;51.014;6.678;2023-04-08T09:41:18;47.35;;;33.70;;
9880;SDS011;4979;51.014;6.678;2023-04-08T09:43:49;43.80;;;31.42;;
9880;SDS011;4979;51.014;6.678;2023-04-08T09:46:19;45.28;;;30.95;;
9880;SDS011;4979;51.014;6.678;2023-04-08T09:54:22;44.30;;;31.17;;
9880;SDS011;4979;51.014;6.678;2023-04-08T09:56:59;48.50;;;31.92;;
9880;SDS011;4979;51.014;6.678;2023-04-08T09:59:29;43.10;;;29.88;;
9880;SDS011;4979;51.014;6.678;2023-04-08T10:01:58;38.58;;;27.17;;
9880;SDS011;4979;51.014;6.678;2023-04-08T10:04:29;39.28;;;28.60;;
9880;SDS011;4979;51.014;6.678;2023-04-08T10:07:00;41.67;;;29.38;;
9880;SDS011;4979;51.014;6.678;2023-04-08T10:09:28;41.20;;;29.88;;
9880;SDS011;4979;51.014;6.678;2023-04-08T10:11:56;43.65;;;30.40;;
9880;SDS011;4979;51.014;6.678;2023-04-08T10:14:22;41.83;;;29.20;;
9880;SDS011;4979;51.014;6.678;2023-04-08T10:16:51;41.90;;;29.50;;
9880;SDS011;4979;51.014;6.678;2023-04-08T10:19:52;38.70;;;28.80;;
9880;SDS011;4979;51.014;6.678;2023-04-08T10:27:40;24.98;;;19.70;;
9880;SDS011;4979;51.014;6.678;2023-04-08T10:30:40;19.33;;;16.77;;
9880;SDS011;4979;51.014;6.678;2023-04-08T10:32:58;19.38;;;16.17;;
9880;SDS011;4979;51.014;6.678;2023-04-08T10:35:28;16.52;;;14.68;;
9880;SDS011;4979;51.014;6.678;2023-04-08T10:37:54;16.88;;;13.95;;
9880;SDS011;4979;51.014;6.678;2023-04-08T10:40:20;19.02;;;15.77;;
9880;SDS011;4979;51.014;6.678;2023-04-08T10:42:45;16.80;;;13.65;;
9880;SDS011;4979;51.014;6.678;2023-04-08T10:45:15;16.05;;;13.82;;
9880;SDS011;4979;51.014;6.678;2023-04-08T10:47:42;16.10;;;13.82;;
9880;SDS011;4979;51.014;6.678;2023-04-08T10:50:11;17.77;;;14.43;;
9880;SDS011;4979;51.014;6.678;2023-04-08T10:52:47;18.40;;;15.73;;
9880;SDS011;4979;51.014;6.678;2023-04-08T10:55:14;15.57;;;13.60;;
9880;SDS011;4979;51.014;6.678;2023-04-08T10:57:40;16.90;;;14.50;;
9880;SDS011;4979;51.014;6.678;2023-04-08T11:00:10;18.02;;;14.45;;
9880;SDS011;4979;51.014;6.678;2023-04-08T11:02:39;15.73;;;13.27;;
9880;SDS011;4979;51.014;6.678;2023-04-08T11:05:05;16.08;;;14.02;;
9880;SDS011;4979;51.014;6.678;2023-04-08T11:07:38;16.08;;;13.75;;
9880;SDS011;4979;51.014;6.678;2023-04-08T11:10:07;16.10;;;13.57;;
9880;SDS011;4979;51.014;6.678;2023-04-08T11:12:33;19.60;;;15.57;;
9880;SDS011;4979;51.014;6.678;2023-04-08T11:15:03;19.42;;;16.02;;
9880;SDS011;4979;51.014;6.678;2023-04-08T11:17:29;19.42;;;15.45;;
9880;SDS011;4979;51.014;6.678;2023-04-08T11:19:58;18.73;;;15.32;;
9880;SDS011;4979;51.014;6.678;2023-04-08T11:22:27;20.75;;;17.98;;
9880;SDS011;4979;51.014;6.678;2023-04-08T11:24:55;21.70;;;18.63;;
9880;SDS011;4979;51.014;6.678;2023-04-08T11:27:21;25.27;;;19.08;;
9880;SDS011;4979;51.014;6.678;2023-04-08T11:29:49;24.98;;;19.65;;
9880;SDS011;4979;51.014;6.678;2023-04-08T11:32:16;21.33;;;17.58;;
9880;SDS011;4979;51.014;6.678;2023-04-08T11:34:43;22.17;;;19.70;;
9880;SDS011;4979;51.014;6.678;2023-04-08T11:37:09;24.70;;;20.83;;
9880;SDS011;4979;51.014;6.678;2023-04-08T11:39:39;27.75;;;23.35;;
9880;SDS011;4979;51.014;6.678;2023-04-08T11:42:08;27.67;;;23.30;;
9880;SDS011;4979;51.014;6.678;2023-04-08T11:44:33;28.48;;;23.35;;
9880;SDS011;4979;51.014;6.678;2023-04-08T11:46:59;27.13;;;22.92;;
9880;SDS011;4979;51.014;6.678;2023-04-08T11:49:26;25.60;;;22.67;;
9880;SDS011;4979;51.014;6.678;2023-04-08T11:51:57;29.80;;;23.83;;
9880;SDS011;4979;51.014;6.678;2023-04-08T11:54:27;25.92;;;23.13;;
9880;SDS011;4979;51.014;6.678;2023-04-08T11:56:54;26.13;;;23.02;;
9880;SDS011;4979;51.014;6.678;2023-04-08T11:59:22;26.77;;;22.75;;
9880;SDS011;4979;51.014;6.678;2023-04-08T12:01:48;27.75;;;23.50;;
9880;SDS011;4979;51.014;6.678;2023-04-08T12:04:13;29.00;;;23.25;;
9880;SDS011;4979;51.014;6.678;2023-04-08T12:06:39;25.83;;;22.10;;
9880;SDS011;4979;51.014;6.678;2023-04-08T12:09:07;25.38;;;21.92;;
9880;SDS011;4979;51.014;6.678;2023-04-08T12:11:33;23.58;;;20.20;;
9880;SDS011;4979;51.014;6.678;2023-04-08T12:13:59;25.15;;;19.83;;
9880;SDS011;4979;51.014;6.678;2023-04-08T12:16:24;24.42;;;21.58;;
9880;SDS011;4979;51.014;6.678;2023-04-08T12:18:50;25.02;;;20.50;;
9880;SDS011;4979;51.014;6.678;2023-04-08T12:21:16;22.10;;;19.17;;
9880;SDS011;4979;51.014;6.678;2023-04-08T12:23:41;26.10;;;19.15;;
9880;SDS011;4979;51.014;6.678;2023-04-08T12:26:07;26.67;;;21.00;;
9880;SDS011;4979;51.014;6.678;2023-04-08T12:28:33;28.02;;;20.65;;
9880;SDS011;4979;51.014;6.678;2023-04-08T12:30:59;23.13;;;19.13;;
9880;SDS011;4979;51.014;6.678;2023-04-08T12:33:25;26.75;;;19.15;;
9880;SDS011;4979;51.014;6.678;2023-04-08T12:35:51;29.00;;;21.15;;
9880;SDS011;4979;51.014;6.678;2023-04-08T12:38:18;31.17;;;21.33;;
9880;SDS011;4979;51.014;6.678;2023-04-08T12:40:43;28.58;;;22.13;;
9880;SDS011;4979;51.014;6.678;2023-04-08T12:43:09;31.50;;;22.23;;
9880;SDS011;4979;51.014;6.678;2023-04-08T12:45:35;28.73;;;21.98;;
9880;SDS011;4979;51.014;6.678;2023-04-08T12:48:00;29.67;;;21.67;;
9880;SDS011;4979;51.014;6.678;2023-04-08T12:50:26;30.80;;;21.58;;
9880;SDS011;4979;51.014;6.678;2023-04-08T12:52:52;30.77;;;21.40;;
9880;SDS011;4979;51.014;6.678;2023-04-08T12:55:18;29.65;;;21.75;;
9880;SDS011;4979;51.014;6.678;2023-04-08T12:57:43;29.55;;;21.10;;
9880;SDS011;4979;51.014;6.678;2023-04-08T13:00:09;32.70;;;21.98;;
9880;SDS011;4979;51.014;6.678;2023-04-08T13:02:35;29.95;;;22.23;;
9880;SDS011;4979;51.014;6.678;2023-04-08T13:05:01;34.35;;;24.27;;
9880;SDS011;4979;51.014;6.678;2023-04-08T13:07:27;34.13;;;23.17;;
9880;SDS011;4979;51.014;6.678;2023-04-08T13:09:53;38.78;;;23.30;;
9880;SDS011;4979;51.014;6.678;2023-04-08T13:12:18;34.80;;;23.45;;
9880;SDS011;4979;51.014;6.678;2023-04-08T13:14:44;38.75;;;25.00;;
9880;SDS011;4979;51.014;6.678;2023-04-08T13:17:10;39.42;;;24.80;;
9880;SDS011;4979;51.014;6.678;2023-04-08T13:19:35;33.08;;;22.20;;
9880;SDS011;4979;51.014;6.678;2023-04-08T13:22:01;41.08;;;24.70;;
9880;SDS011;4979;51.014;6.678;2023-04-08T13:24:27;35.63;;;24.83;;
9880;SDS011;4979;51.014;6.678;2023-04-08T13:26:53;37.10;;;24.40;;
9880;SDS011;4979;51.014;6.678;2023-04-08T13:29:18;38.30;;;25.42;;
9880;SDS011;4979;51.014;6.678;2023-04-08T13:31:44;34.05;;;21.80;;
9880;SDS011;4979;51.014;6.678;2023-04-08T13:34:10;31.00;;;20.75;;
9880;SDS011;4979;51.014;6.678;2023-04-08T13:36:35;31.27;;;21.45;;
9880;SDS011;4979;51.014;6.678;2023-04-08T13:39:01;25.27;;;18.83;;
9880;SDS011;4979;51.014;6.678;2023-04-08T13:41:27;25.45;;;18.17;;
9880;SDS011;4979;51.014;6.678;2023-04-08T13:43:53;24.92;;;18.13;;
9880;SDS011;4979;51.014;6.678;2023-04-08T13:46:18;24.08;;;17.33;;
9880;SDS011;4979;51.014;6.678;2023-04-08T13:48:44;20.00;;;15.00;;
9880;SDS011;4979;51.014;6.678;2023-04-08T13:51:10;19.48;;;14.32;;
9880;SDS011;4979;51.014;6.678;2023-04-08T13:53:36;18.05;;;11.82;;
9880;SDS011;4979;51.014;6.678;2023-04-08T13:56:01;11.57;;;9.60;;
9880;SDS011;4979;51.014;6.678;2023-04-08T13:58:27;8.15;;;6.82;;
9880;SDS011;4979;51.014;6.678;2023-04-08T14:00:53;10.20;;;7.68;;
9880;SDS011;4979;51.014;6.678;2023-04-08T14:03:19;8.38;;;6.30;;
9880;SDS011;4979;51.014;6.678;2023-04-08T14:05:44;9.95;;;7.85;;
9880;SDS011;4979;51.014;6.678;2023-04-08T14:08:10;9.55;;;7.85;;
9880;SDS011;4979;51.014;6.678;2023-04-08T14:10:37;9.68;;;8.05;;
9880;SDS011;4979;51.014;6.678;2023-04-08T14:13:03;12.82;;;8.80;;
9880;SDS011;4979;51.014;6.678;2023-04-08T14:15:28;11.90;;;8.60;;
9880;SDS011;4979;51.014;6.678;2023-04-08T14:17:54;9.77;;;8.57;;
9880;SDS011;4979;51.014;6.678;2023-04-08T14:20:21;10.80;;;8.80;;
9880;SDS011;4979;51.014;6.678;2023-04-08T14:22:46;14.18;;;9.73;;
9880;SDS011;4979;51.014;6.678;2023-04-08T14:25:12;13.93;;;9.52;;
9880;SDS011;4979;51.014;6.678;2023-04-08T14:27:38;14.02;;;9.88;;
9880;SDS011;4979;51.014;6.678;2023-04-08T14:30:04;12.65;;;9.88;;
9880;SDS011;4979;51.014;6.678;2023-04-08T14:32:30;11.98;;;9.68;;
9880;SDS011;4979;51.014;6.678;2023-04-08T14:34:56;9.82;;;8.20;;
9880;SDS011;4979;51.014;6.678;2023-04-08T14:37:22;11.38;;;8.93;;
9880;SDS011;4979;51.014;6.678;2023-04-08T14:39:48;15.55;;;9.68;;
9880;SDS011;4979;51.014;6.678;2023-04-08T14:42:14;12.20;;;8.80;;
9880;SDS011;4979;51.014;6.678;2023-04-08T14:44:42;11.40;;;8.13;;
9880;SDS011;4979;51.014;6.678;2023-04-08T14:47:08;11.85;;;8.30;;
9880;SDS011;4979;51.014;6.678;2023-04-08T14:49:34;9.68;;;7.00;;
9880;SDS011;4979;51.014;6.678;2023-04-08T14:52:00;10.20;;;7.43;;
9880;SDS011;4979;51.014;6.678;2023-04-08T14:54:26;11.02;;;8.07;;
9880;SDS011;4979;51.014;6.678;2023-04-08T14:56:51;10.45;;;8.10;;
9880;SDS011;4979;51.014;6.678;2023-04-08T14:59:18;13.25;;;8.35;;
9880;SDS011;4979;51.014;6.678;2023-04-08T15:01:43;13.60;;;8.45;;
9880;SDS011;4979;51.014;6.678;2023-04-08T15:04:09;10.13;;;7.82;;
9880;SDS011;4979;51.014;6.678;2023-04-08T15:06:35;12.48;;;7.88;;